Historyczne dane pomiarowe

Dodano dane terminowe – wersja testowa.

Dane z okresu 1951-2019

Wersja bazy: 1.34 [2019-03-16, lista zmian], aktualizacja planowana na 2019-04-15

Dane meteo z obszaru Polski uzyskane na podstawie danych udostępnionych przez Instytut Meteorologii i Gospodarki Wodnej – Państwowy Instytut Badawczy.

 

Wybierz Datę:    

       

TemperaturaWilgotnośćZachmurzenieWiatrCiśnienieWidzialnośćZjawiska
 Data    tng td wb rh cc ccl cl cm ch dir g1 g2 mslp ppp      
1994-07-05 00:00:00 17.8--- 14.6 15.881wxwxwx0wx--1015.7 975.6 0.0---wx
1994-07-05 01:00:00 17.2--- 15.3 16.088wxwxwxwx0wx--1015.4 975.2----wx
1994-07-05 02:00:00 17.4--- 14.5 15.683wxwxwxwx1wx--1015.1 975.0----wx
1994-07-05 03:00:00 16.2--- 15.1 15.593wxwxwxwx0wx--1015.3 975.0----wx
1994-07-05 04:00:00 16.0--- 15.0 15.494wxwxwxwx0wx--1015.4 975.1----wx
1994-07-05 05:00:00 17.3--- 15.5 16.289wxwxwxwx0wx--1015.5 975.3----wx
1994-07-05 06:00:00 18.3--- 15.9 16.886wxwxwx0wx--1015.4 975.4 0.0---wx
1994-07-05 07:00:00 20.5--- 15.6 17.474wxwxwxwx1wx--1015.0 975.3----wx
1994-07-05 08:00:00 22.9--- 15.7 18.364wxwxwxwxwx1wx--1014.7 975.3----wx
1994-07-05 09:00:00 23.6--- 17.4 19.568wxwxwxwx3wx--1014.7 975.4----wx
1994-07-05 10:00:00 24.1--- 17.1 19.565wxwxwxwx5wx--1014.8 975.6----wx
1994-07-05 11:00:00 23.9--- 16.3 19.063wxwxwxwx4wx--1015.0 975.7----wx
1994-07-05 12:00:00 23.9--- 16.5 19.163wxwxwxwx2wx--1014.7 975.4 0.0---wx
1994-07-05 13:00:00 23.1--- 15.9 18.564wxwxwx4wx--1015.0 975.6----wx
1994-07-05 14:00:00 23.5--- 15.7 18.562wxwxwx2wx--1014.9 975.6----wx
1994-07-05 15:00:00 23.6--- 16.7 19.165wxwxwxwx2wx--1014.8 975.5----wx
1994-07-05 16:00:00 22.9--- 16.1 18.565wxwxwx0wx--1015.0 975.6----wx
1994-07-05 17:00:00 22.1--- 15.5 17.966wxwxwx1wx--1015.3 975.8----wx
1994-07-05 18:00:00 21.4--- 14.9 17.366wxwxwx2wx--1015.6 976.0 0.0---wx
1994-07-05 19:00:00 18.8--- 13.9 15.873wxwxwx0wx--1016.4 976.4----wx
1994-07-05 20:00:00 18.5--- 13.9 15.775wxwxwx0wx--1016.7 976.7----wx
1994-07-05 21:00:00 17.3--- 14.2 15.482wxwxwx0wx--1016.9 976.7----wx
1994-07-05 22:00:00 17.0--- 14.0 15.283wxwx0wx--1017.4 977.1----wx
1994-07-05 23:00:00 14.7--- 13.0 13.790wxwx0wx--1017.6 977.0----wx

 

Źródłem pochodzenia danych jest Instytut Meteorologii i Gospodarki Wodnej – Państwowy Instytut Badawczy. Dane Instytutu Meteorologii i Gospodarki Wodnej – Państwowego Instytutu Badawczego zostały przetworzone.

Dane źródłowe można odnaleźć na stronie https://dane.imgw.pl